sensor_id;sensor_type;location;lat;lon;timestamp;pressure;altitude;pressure_sealevel;temperature;humidity
28428;BME280;15662;49.128;8.520;2023-04-06T00:00:28;100741.91;;;7.46;37.94
28428;BME280;15662;49.128;8.520;2023-04-06T00:02:56;100738.34;;;7.48;38.26
28428;BME280;15662;49.128;8.520;2023-04-06T00:05:24;100742.78;;;7.46;38.26
28428;BME280;15662;49.128;8.520;2023-04-06T00:07:52;100736.63;;;7.43;38.31
28428;BME280;15662;49.128;8.520;2023-04-06T00:10:21;100741.03;;;7.42;38.15
28428;BME280;15662;49.128;8.520;2023-04-06T00:12:49;100734.88;;;7.43;38.25
28428;BME280;15662;49.128;8.520;2023-04-06T00:15:17;100737.50;;;7.46;38.30
28428;BME280;15662;49.128;8.520;2023-04-06T00:17:45;100737.50;;;7.46;38.24
28428;BME280;15662;49.128;8.520;2023-04-06T00:20:13;100736.63;;;7.43;38.42
28428;BME280;15662;49.128;8.520;2023-04-06T00:22:40;100730.53;;;7.38;38.48
28428;BME280;15662;49.128;8.520;2023-04-06T00:25:09;100731.41;;;7.40;38.59
28428;BME280;15662;49.128;8.520;2023-04-06T00:27:38;100727.03;;;7.33;38.63
28428;BME280;15662;49.128;8.520;2023-04-06T00:30:07;100722.69;;;7.30;38.26
28428;BME280;15662;49.128;8.520;2023-04-06T00:32:35;100726.22;;;7.26;38.39
28428;BME280;15662;49.128;8.520;2023-04-06T00:35:04;100733.22;;;7.27;38.97
28428;BME280;15662;49.128;8.520;2023-04-06T00:37:33;100721.88;;;7.20;38.71
28428;BME280;15662;49.128;8.520;2023-04-06T00:40:01;100728.84;;;7.28;38.88
28428;BME280;15662;49.128;8.520;2023-04-06T00:42:29;100728.84;;;7.28;38.65
28428;BME280;15662;49.128;8.520;2023-04-06T00:44:59;100730.59;;;7.24;38.73
28428;BME280;15662;49.128;8.520;2023-04-06T00:47:28;100730.69;;;7.15;38.90
28428;BME280;15662;49.128;8.520;2023-04-06T00:49:57;100718.38;;;7.14;38.97
28428;BME280;15662;49.128;8.520;2023-04-06T00:52:25;100729.81;;;7.16;38.88
28428;BME280;15662;49.128;8.520;2023-04-06T00:54:54;100717.50;;;7.15;38.89
28428;BME280;15662;49.128;8.520;2023-04-06T00:57:22;100717.47;;;7.18;39.35
28428;BME280;15662;49.128;8.520;2023-04-06T00:59:55;100708.66;;;7.19;39.19
28428;BME280;15662;49.128;8.520;2023-04-06T01:02:24;100712.19;;;7.18;39.25
28428;BME280;15662;49.128;8.520;2023-04-06T01:04:54;100709.63;;;7.12;39.26
28428;BME280;15662;49.128;8.520;2023-04-06T01:07:31;100702.59;;;7.09;39.38
28428;BME280;15662;49.128;8.520;2023-04-06T01:10:07;100710.50;;;7.11;39.32
28428;BME280;15662;49.128;8.520;2023-04-06T01:12:36;100720.19;;;7.07;39.47
28428;BME280;15662;49.128;8.520;2023-04-06T01:15:12;100714.06;;;7.01;39.47
28428;BME280;15662;49.128;8.520;2023-04-06T01:17:43;100717.59;;;7.01;39.74
28428;BME280;15662;49.128;8.520;2023-04-06T01:20:15;100711.47;;;6.96;39.86
28428;BME280;15662;49.128;8.520;2023-04-06T01:22:43;100707.97;;;6.92;39.55
28428;BME280;15662;49.128;8.520;2023-04-06T01:25:12;100707.09;;;6.89;39.30
28428;BME280;15662;49.128;8.520;2023-04-06T01:27:47;100708.84;;;6.91;39.70
28428;BME280;15662;49.128;8.520;2023-04-06T01:30:22;100711.50;;;6.88;39.78
28428;BME280;15662;49.128;8.520;2023-04-06T01:32:53;100710.69;;;6.80;39.61
28428;BME280;15662;49.128;8.520;2023-04-06T01:35:36;100703.66;;;6.76;39.71
28428;BME280;15662;49.128;8.520;2023-04-06T01:38:17;100701.06;;;6.71;39.94
28428;BME280;15662;49.128;8.520;2023-04-06T01:40:47;100691.38;;;6.72;40.02
28428;BME280;15662;49.128;8.520;2023-04-06T01:43:17;100697.50;;;6.77;39.98
28428;BME280;15662;49.128;8.520;2023-04-06T01:45:59;100699.28;;;6.77;39.97
28428;BME280;15662;49.128;8.520;2023-04-06T01:48:32;100691.38;;;6.77;39.83
28428;BME280;15662;49.128;8.520;2023-04-06T01:51:06;100696.66;;;6.75;39.92
28428;BME280;15662;49.128;8.520;2023-04-06T01:53:41;100685.25;;;6.70;40.00
28428;BME280;15662;49.128;8.520;2023-04-06T01:56:09;100684.34;;;6.69;40.03
28428;BME280;15662;49.128;8.520;2023-04-06T01:58:43;100678.25;;;6.66;40.08
28428;BME280;15662;49.128;8.520;2023-04-06T02:01:13;100688.75;;;6.69;40.30
28428;BME280;15662;49.128;8.520;2023-04-06T02:03:52;100697.53;;;6.65;40.04
28428;BME280;15662;49.128;8.520;2023-04-06T02:06:20;100688.78;;;6.63;40.18
28428;BME280;15662;49.128;8.520;2023-04-06T02:08:49;100676.53;;;6.56;40.33
28428;BME280;15662;49.128;8.520;2023-04-06T02:11:16;100692.31;;;6.59;40.69
28428;BME280;15662;49.128;8.520;2023-04-06T02:13:48;100700.22;;;6.54;40.29
28428;BME280;15662;49.128;8.520;2023-04-06T02:16:17;100697.63;;;6.53;40.65
28428;BME280;15662;49.128;8.520;2023-04-06T02:18:46;100700.25;;;6.50;40.77
28428;BME280;15662;49.128;8.520;2023-04-06T02:21:14;100690.63;;;6.42;40.65
28428;BME280;15662;49.128;8.520;2023-04-06T02:23:46;100687.16;;;6.30;40.44
28428;BME280;15662;49.128;8.520;2023-04-06T02:26:15;100694.16;;;6.35;40.30
28428;BME280;15662;49.128;8.520;2023-04-06T02:28:43;100687.16;;;6.36;40.26
28428;BME280;15662;49.128;8.520;2023-04-06T02:31:11;100690.66;;;6.41;40.55
28428;BME280;15662;49.128;8.520;2023-04-06T02:33:39;100686.25;;;6.43;40.37
28428;BME280;15662;49.128;8.520;2023-04-06T02:36:07;100674.84;;;6.45;40.54
28428;BME280;15662;49.128;8.520;2023-04-06T02:38:35;100678.28;;;6.54;40.20
28428;BME280;15662;49.128;8.520;2023-04-06T02:41:03;100680.00;;;6.59;40.70
28428;BME280;15662;49.128;8.520;2023-04-06T02:43:33;100683.50;;;6.64;40.54
28428;BME280;15662;49.128;8.520;2023-04-06T02:46:06;100672.97;;;6.63;40.89
28428;BME280;15662;49.128;8.520;2023-04-06T02:48:38;100662.41;;;6.69;40.61
28428;BME280;15662;49.128;8.520;2023-04-06T02:51:06;100674.69;;;6.76;40.93
28428;BME280;15662;49.128;8.520;2023-04-06T02:53:34;100670.31;;;6.75;40.54
28428;BME280;15662;49.128;8.520;2023-04-06T02:56:03;100669.41;;;6.73;40.64
28428;BME280;15662;49.128;8.520;2023-04-06T02:58:43;100663.34;;;6.62;40.75
28428;BME280;15662;49.128;8.520;2023-04-06T03:01:10;100657.25;;;6.52;40.68
28428;BME280;15662;49.128;8.520;2023-04-06T03:03:40;100668.66;;;6.51;41.05
28428;BME280;15662;49.128;8.520;2023-04-06T03:06:15;100670.44;;;6.47;40.86
28428;BME280;15662;49.128;8.520;2023-04-06T03:08:43;100659.91;;;6.40;40.86
28428;BME280;15662;49.128;8.520;2023-04-06T03:11:11;100659.06;;;6.30;40.83
28428;BME280;15662;49.128;8.520;2023-04-06T03:13:42;100671.38;;;6.27;40.99
28428;BME280;15662;49.128;8.520;2023-04-06T03:16:10;100673.13;;;6.25;41.14
28428;BME280;15662;49.128;8.520;2023-04-06T03:18:39;100674.03;;;6.22;41.05
28428;BME280;15662;49.128;8.520;2023-04-06T03:21:07;100672.28;;;6.18;41.15
28428;BME280;15662;49.128;8.520;2023-04-06T03:23:44;100671.41;;;6.10;41.20
28428;BME280;15662;49.128;8.520;2023-04-06T03:26:12;100681.06;;;6.09;41.41
28428;BME280;15662;49.128;8.520;2023-04-06T03:28:40;100674.06;;;6.05;41.21
28428;BME280;15662;49.128;8.520;2023-04-06T03:31:08;100675.81;;;6.08;41.28
28428;BME280;15662;49.128;8.520;2023-04-06T03:33:51;100675.84;;;6.06;41.25
28428;BME280;15662;49.128;8.520;2023-04-06T03:36:26;100686.38;;;6.02;41.45
28428;BME280;15662;49.128;8.520;2023-04-06T03:38:56;100682.88;;;6.01;41.20
28428;BME280;15662;49.128;8.520;2023-04-06T03:41:25;100684.59;;;5.99;41.20
28428;BME280;15662;49.128;8.520;2023-04-06T03:44:08;100664.44;;;5.87;41.46
28428;BME280;15662;49.128;8.520;2023-04-06T03:46:37;100688.13;;;5.97;41.21
28428;BME280;15662;49.128;8.520;2023-04-06T03:49:06;100676.72;;;5.94;41.34
28428;BME280;15662;49.128;8.520;2023-04-06T03:51:34;100686.38;;;5.95;41.63
28428;BME280;15662;49.128;8.520;2023-04-06T03:54:04;100689.91;;;5.96;41.87
28428;BME280;15662;49.128;8.520;2023-04-06T03:56:32;100689.00;;;5.95;41.62
28428;BME280;15662;49.128;8.520;2023-04-06T03:59:00;100694.28;;;5.92;41.69
28428;BME280;15662;49.128;8.520;2023-04-06T04:01:29;100680.22;;;5.89;41.92
28428;BME280;15662;49.128;8.520;2023-04-06T04:03:57;100688.09;;;5.90;42.13
28428;BME280;15662;49.128;8.520;2023-04-06T04:06:25;100696.00;;;5.87;42.25
28428;BME280;15662;49.128;8.520;2023-04-06T04:08:53;100692.50;;;5.79;42.65
28428;BME280;15662;49.128;8.520;2023-04-06T04:11:21;100696.00;;;5.80;42.71
28428;BME280;15662;49.128;8.520;2023-04-06T04:13:55;100681.13;;;5.73;42.68
28428;BME280;15662;49.128;8.520;2023-04-06T04:16:23;100693.38;;;5.78;42.75
28428;BME280;15662;49.128;8.520;2023-04-06T04:18:51;100706.53;;;5.83;42.64
28428;BME280;15662;49.128;8.520;2023-04-06T04:21:19;100695.13;;;5.79;42.75
28428;BME280;15662;49.128;8.520;2023-04-06T04:23:47;100696.88;;;5.76;42.66
28428;BME280;15662;49.128;8.520;2023-04-06T04:26:15;100714.44;;;5.83;42.45
28428;BME280;15662;49.128;8.520;2023-04-06T04:28:45;100717.94;;;5.86;42.62
28428;BME280;15662;49.128;8.520;2023-04-06T04:31:15;100712.66;;;5.83;42.56
28428;BME280;15662;49.128;8.520;2023-04-06T04:34:09;100721.44;;;5.79;42.78
28428;BME280;15662;49.128;8.520;2023-04-06T04:36:58;100726.69;;;5.81;42.49
28428;BME280;15662;49.128;8.520;2023-04-06T04:39:58;100716.16;;;5.76;42.80
28428;BME280;15662;49.128;8.520;2023-04-06T04:42:28;100707.41;;;5.74;42.85
28428;BME280;15662;49.128;8.520;2023-04-06T04:44:58;100717.06;;;5.75;42.98
28428;BME280;15662;49.128;8.520;2023-04-06T04:47:36;100723.19;;;5.69;43.01
28428;BME280;15662;49.128;8.520;2023-04-06T04:50:06;100722.31;;;5.64;42.97
28428;BME280;15662;49.128;8.520;2023-04-06T04:52:38;100724.94;;;5.64;42.75
28428;BME280;15662;49.128;8.520;2023-04-06T04:55:14;100727.56;;;5.64;42.60
28428;BME280;15662;49.128;8.520;2023-04-06T04:57:46;100723.19;;;5.65;42.47
28428;BME280;15662;49.128;8.520;2023-04-06T05:00:15;100726.69;;;5.75;42.73
28428;BME280;15662;49.128;8.520;2023-04-06T05:02:46;100728.44;;;5.80;42.54
28428;BME280;15662;49.128;8.520;2023-04-06T05:05:19;100737.22;;;5.82;42.59
28428;BME280;15662;49.128;8.520;2023-04-06T05:07:47;100729.31;;;5.84;42.60
28428;BME280;15662;49.128;8.520;2023-04-06T05:10:25;100731.97;;;5.88;42.87
28428;BME280;15662;49.128;8.520;2023-04-06T05:12:59;100730.19;;;5.84;42.98
28428;BME280;15662;49.128;8.520;2023-04-06T05:15:28;100731.97;;;5.84;42.78
28428;BME280;15662;49.128;8.520;2023-04-06T05:18:06;100745.09;;;5.88;43.08
28428;BME280;15662;49.128;8.520;2023-04-06T05:20:36;100750.38;;;5.88;42.92
28428;BME280;15662;49.128;8.520;2023-04-06T05:23:04;100746.88;;;5.88;43.01
28428;BME280;15662;49.128;8.520;2023-04-06T05:25:32;100739.84;;;5.85;42.96
28428;BME280;15662;49.128;8.520;2023-04-06T05:28:11;100745.09;;;5.88;42.90
28428;BME280;15662;49.128;8.520;2023-04-06T05:30:43;100755.69;;;5.91;43.12
28428;BME280;15662;49.128;8.520;2023-04-06T05:33:12;100745.16;;;5.93;43.16
28428;BME280;15662;49.128;8.520;2023-04-06T05:36:00;100753.03;;;5.99;42.94
28428;BME280;15662;49.128;8.520;2023-04-06T05:38:29;100754.78;;;6.06;42.94
28428;BME280;15662;49.128;8.520;2023-04-06T05:41:01;100752.13;;;6.14;43.21
28428;BME280;15662;49.128;8.520;2023-04-06T05:43:32;100752.13;;;6.17;43.07
28428;BME280;15662;49.128;8.520;2023-04-06T05:46:01;100755.63;;;6.24;43.20
28428;BME280;15662;49.128;8.520;2023-04-06T05:48:30;100749.47;;;6.20;43.01
28428;BME280;15662;49.128;8.520;2023-04-06T05:51:02;100749.50;;;6.22;43.21
28428;BME280;15662;49.128;8.520;2023-04-06T05:53:44;100760.00;;;6.25;43.25
28428;BME280;15662;49.128;8.520;2023-04-06T05:56:14;100769.66;;;6.27;43.25
28428;BME280;15662;49.128;8.520;2023-04-06T05:58:42;100761.75;;;6.27;43.55
28428;BME280;15662;49.128;8.520;2023-04-06T06:01:13;100761.75;;;6.27;43.42
28428;BME280;15662;49.128;8.520;2023-04-06T06:03:46;100759.97;;;6.38;43.37
28428;BME280;15662;49.128;8.520;2023-04-06T06:06:15;100759.09;;;6.47;43.26
28428;BME280;15662;49.128;8.520;2023-04-06T06:09:01;100768.72;;;6.54;43.11
28428;BME280;15662;49.128;8.520;2023-04-06T06:11:34;100759.94;;;6.55;43.29
28428;BME280;15662;49.128;8.520;2023-04-06T06:14:07;100752.03;;;6.54;43.54
28428;BME280;15662;49.128;8.520;2023-04-06T06:16:38;100761.72;;;6.49;43.52
28428;BME280;15662;49.128;8.520;2023-04-06T06:19:08;100765.16;;;6.60;43.68
28428;BME280;15662;49.128;8.520;2023-04-06T06:21:37;100764.28;;;6.71;43.36
28428;BME280;15662;49.128;8.520;2023-04-06T06:24:07;100771.25;;;6.79;43.70
28428;BME280;15662;49.128;8.520;2023-04-06T06:26:37;100760.75;;;6.77;43.63
28428;BME280;15662;49.128;8.520;2023-04-06T06:29:08;100772.13;;;6.82;43.77
28428;BME280;15662;49.128;8.520;2023-04-06T06:31:38;100767.75;;;6.86;43.75
28428;BME280;15662;49.128;8.520;2023-04-06T06:34:07;100761.53;;;6.93;44.34
28428;BME280;15662;49.128;8.520;2023-04-06T06:36:37;100756.25;;;6.97;44.25
28428;BME280;15662;49.128;8.520;2023-04-06T06:39:08;100753.56;;;7.08;44.03
28428;BME280;15662;49.128;8.520;2023-04-06T06:41:39;100748.25;;;7.17;44.00
28428;BME280;15662;49.128;8.520;2023-04-06T06:44:10;100752.56;;;7.29;44.45
28428;BME280;15662;49.128;8.520;2023-04-06T06:46:38;100754.19;;;7.47;44.23
28428;BME280;15662;49.128;8.520;2023-04-06T06:49:06;100755.91;;;7.59;44.38
28428;BME280;15662;49.128;8.520;2023-04-06T06:51:35;100747.00;;;7.67;44.45
28428;BME280;15662;49.128;8.520;2023-04-06T06:54:05;100743.44;;;7.76;43.85
28428;BME280;15662;49.128;8.520;2023-04-06T06:56:35;100752.06;;;7.95;43.98
28428;BME280;15662;49.128;8.520;2023-04-06T06:59:07;100751.13;;;8.04;44.24
28428;BME280;15662;49.128;8.520;2023-04-06T07:01:36;100756.22;;;8.20;43.93
28428;BME280;15662;49.128;8.520;2023-04-06T07:04:04;100752.59;;;8.31;44.16
28428;BME280;15662;49.128;8.520;2023-04-06T07:06:33;100748.13;;;8.43;43.64
28428;BME280;15662;49.128;8.520;2023-04-06T07:09:04;100754.13;;;8.55;43.75
28428;BME280;15662;49.128;8.520;2023-04-06T07:11:34;100746.13;;;8.64;43.77
28428;BME280;15662;49.128;8.520;2023-04-06T07:14:02;100752.97;;;8.78;43.19
28428;BME280;15662;49.128;8.520;2023-04-06T07:16:30;100740.56;;;8.87;43.54
28428;BME280;15662;49.128;8.520;2023-04-06T07:18:58;100747.41;;;9.00;43.03
28428;BME280;15662;49.128;8.520;2023-04-06T07:21:31;100748.22;;;9.07;43.26
28428;BME280;15662;49.128;8.520;2023-04-06T07:23:59;100734.88;;;9.14;43.08
28428;BME280;15662;49.128;8.520;2023-04-06T07:26:30;100748.75;;;9.30;43.14
28428;BME280;15662;49.128;8.520;2023-04-06T07:28:58;100740.75;;;9.36;43.00
28428;BME280;15662;49.128;8.520;2023-04-06T07:31:26;100752.84;;;9.52;42.80
28428;BME280;15662;49.128;8.520;2023-04-06T07:33:55;100759.75;;;9.63;42.36
28428;BME280;15662;49.128;8.520;2023-04-06T07:36:25;100744.63;;;9.69;42.62
28428;BME280;15662;49.128;8.520;2023-04-06T07:38:53;100750.66;;;9.80;42.45
28428;BME280;15662;49.128;8.520;2023-04-06T07:41:22;100750.50;;;9.88;42.43
28428;BME280;15662;49.128;8.520;2023-04-06T07:43:51;100749.44;;;9.98;42.47
28428;BME280;15662;49.128;8.520;2023-04-06T07:46:19;100750.22;;;10.03;42.10
28428;BME280;15662;49.128;8.520;2023-04-06T07:48:48;100744.78;;;10.13;42.35
28428;BME280;15662;49.128;8.520;2023-04-06T07:51:17;100755.22;;;10.22;41.98
28428;BME280;15662;49.128;8.520;2023-04-06T07:53:47;100739.19;;;10.31;42.07
28428;BME280;15662;49.128;8.520;2023-04-06T07:56:14;100747.84;;;10.41;41.91
28428;BME280;15662;49.128;8.520;2023-04-06T07:58:47;100741.56;;;10.45;41.63
28428;BME280;15662;49.128;8.520;2023-04-06T08:01:15;100747.56;;;10.54;41.82
28428;BME280;15662;49.128;8.520;2023-04-06T08:03:43;100744.72;;;10.65;41.58
28428;BME280;15662;49.128;8.520;2023-04-06T08:06:11;100748.03;;;10.75;41.40
28428;BME280;15662;49.128;8.520;2023-04-06T08:08:39;100746.94;;;10.85;41.46
28428;BME280;15662;49.128;8.520;2023-04-06T08:11:08;100739.75;;;10.90;41.39
28428;BME280;15662;49.128;8.520;2023-04-06T08:13:35;100744.78;;;11.02;41.34
28428;BME280;15662;49.128;8.520;2023-04-06T08:16:05;100735.03;;;11.04;41.28
28428;BME280;15662;49.128;8.520;2023-04-06T08:18:34;100743.72;;;11.11;41.18
28428;BME280;15662;49.128;8.520;2023-04-06T08:21:02;100747.06;;;11.21;41.00
28428;BME280;15662;49.128;8.520;2023-04-06T08:23:30;100741.59;;;11.28;41.11
28428;BME280;15662;49.128;8.520;2023-04-06T08:25:59;100744.03;;;11.36;40.95
28428;BME280;15662;49.128;8.520;2023-04-06T08:28:28;100749.25;;;11.41;40.70
28428;BME280;15662;49.128;8.520;2023-04-06T08:30:56;100743.91;;;11.42;40.81
28428;BME280;15662;49.128;8.520;2023-04-06T08:33:25;100747.19;;;11.53;40.52
28428;BME280;15662;49.128;8.520;2023-04-06T08:35:53;100745.31;;;11.58;40.19
28428;BME280;15662;49.128;8.520;2023-04-06T08:38:20;100741.59;;;11.66;40.15
28428;BME280;15662;49.128;8.520;2023-04-06T08:40:49;100733.44;;;11.73;40.24
28428;BME280;15662;49.128;8.520;2023-04-06T08:43:22;100740.31;;;11.82;40.18
28428;BME280;15662;49.128;8.520;2023-04-06T08:45:51;100740.06;;;11.93;39.92
28428;BME280;15662;49.128;8.520;2023-04-06T08:48:19;100737.25;;;11.99;39.77
28428;BME280;15662;49.128;8.520;2023-04-06T08:50:48;100737.88;;;12.08;39.81
28428;BME280;15662;49.128;8.520;2023-04-06T08:53:17;100737.53;;;12.22;39.69
28428;BME280;15662;49.128;8.520;2023-04-06T08:55:47;100736.50;;;12.28;39.65
28428;BME280;15662;49.128;8.520;2023-04-06T08:58:15;100732.66;;;12.38;39.61
28428;BME280;15662;49.128;8.520;2023-04-06T09:01:07;100742.13;;;12.48;38.96
28428;BME280;15662;49.128;8.520;2023-04-06T09:03:39;100729.53;;;12.55;39.42
28428;BME280;15662;49.128;8.520;2023-04-06T09:06:09;100724.94;;;12.60;39.16
28428;BME280;15662;49.128;8.520;2023-04-06T09:08:40;100723.63;;;12.76;39.09
28428;BME280;15662;49.128;8.520;2023-04-06T09:11:08;100730.50;;;12.83;38.92
28428;BME280;15662;49.128;8.520;2023-04-06T09:13:49;100730.16;;;12.94;38.69
28428;BME280;15662;49.128;8.520;2023-04-06T09:16:18;100738.00;;;12.99;38.68
28428;BME280;15662;49.128;8.520;2023-04-06T09:18:47;100724.44;;;13.08;38.39
28428;BME280;15662;49.128;8.520;2023-04-06T09:21:19;100724.97;;;13.19;38.24
28428;BME280;15662;49.128;8.520;2023-04-06T09:24:04;100715.81;;;13.29;37.98
28428;BME280;15662;49.128;8.520;2023-04-06T09:26:32;100723.50;;;13.38;38.17
28428;BME280;15662;49.128;8.520;2023-04-06T09:29:01;100727.69;;;13.47;37.98
28428;BME280;15662;49.128;8.520;2023-04-06T09:31:31;100721.19;;;13.56;38.01
28428;BME280;15662;49.128;8.520;2023-04-06T09:34:04;100700.81;;;13.55;38.16
28428;BME280;15662;49.128;8.520;2023-04-06T09:36:35;100719.69;;;13.74;37.84
28428;BME280;15662;49.128;8.520;2023-04-06T09:39:06;100722.13;;;13.81;37.80
28428;BME280;15662;49.128;8.520;2023-04-06T09:41:36;100714.78;;;13.88;37.32
28428;BME280;15662;49.128;8.520;2023-04-06T09:44:09;100715.41;;;13.96;37.37
28428;BME280;15662;49.128;8.520;2023-04-06T09:46:41;100710.88;;;13.98;37.38
28428;BME280;15662;49.128;8.520;2023-04-06T09:49:31;100708.69;;;14.11;37.08
28428;BME280;15662;49.128;8.520;2023-04-06T09:52:03;100706.72;;;14.16;36.95
28428;BME280;15662;49.128;8.520;2023-04-06T09:54:32;100698.72;;;14.16;36.91
28428;BME280;15662;49.128;8.520;2023-04-06T09:57:15;100699.22;;;14.27;36.55
28428;BME280;15662;49.128;8.520;2023-04-06T10:00:00;100706.78;;;14.39;36.35
28428;BME280;15662;49.128;8.520;2023-04-06T10:03:07;100704.91;;;14.41;36.18
28428;BME280;15662;49.128;8.520;2023-04-06T10:05:59;100695.09;;;14.43;36.24
28428;BME280;15662;49.128;8.520;2023-04-06T10:08:28;100693.00;;;14.52;36.32
28428;BME280;15662;49.128;8.520;2023-04-06T10:11:00;100690.81;;;14.63;36.22
28428;BME280;15662;49.128;8.520;2023-04-06T10:13:28;100702.84;;;14.75;35.87
28428;BME280;15662;49.128;8.520;2023-04-06T10:16:00;100683.91;;;14.81;35.41
28428;BME280;15662;49.128;8.520;2023-04-06T10:18:29;100691.34;;;14.96;35.21
28428;BME280;15662;49.128;8.520;2023-04-06T10:21:23;100697.13;;;15.07;35.06
28428;BME280;15662;49.128;8.520;2023-04-06T10:23:59;100690.63;;;15.14;35.02
28428;BME280;15662;49.128;8.520;2023-04-06T10:26:29;100680.72;;;15.18;34.70
28428;BME280;15662;49.128;8.520;2023-04-06T10:29:03;100683.00;;;15.27;34.68
28428;BME280;15662;49.128;8.520;2023-04-06T10:31:39;100682.75;;;15.33;34.48
28428;BME280;15662;49.128;8.520;2023-04-06T10:34:08;100688.72;;;15.40;34.70
28428;BME280;15662;49.128;8.520;2023-04-06T10:36:36;100682.13;;;15.48;34.62
28428;BME280;15662;49.128;8.520;2023-04-06T10:39:06;100683.69;;;15.54;34.54
28428;BME280;15662;49.128;8.520;2023-04-06T10:41:43;100686.03;;;15.62;34.03
28428;BME280;15662;49.128;8.520;2023-04-06T10:44:24;100676.94;;;15.67;33.56
28428;BME280;15662;49.128;8.520;2023-04-06T10:46:59;100671.50;;;15.69;33.66
28428;BME280;15662;49.128;8.520;2023-04-06T10:49:30;100670.25;;;15.78;33.25
28428;BME280;15662;49.128;8.520;2023-04-06T10:51:58;100670.00;;;15.84;33.25
28428;BME280;15662;49.128;8.520;2023-04-06T10:54:28;100672.28;;;15.93;32.92
28428;BME280;15662;49.128;8.520;2023-04-06T10:56:57;100666.66;;;15.99;33.40
28428;BME280;15662;49.128;8.520;2023-04-06T10:59:29;100654.34;;;16.15;32.81
28428;BME280;15662;49.128;8.520;2023-04-06T11:01:59;100653.91;;;16.26;32.73
28428;BME280;15662;49.128;8.520;2023-04-06T11:04:27;100658.09;;;16.32;32.73
28428;BME280;15662;49.128;8.520;2023-04-06T11:06:55;100656.59;;;16.45;32.49
28428;BME280;15662;49.128;8.520;2023-04-06T11:09:29;100652.63;;;16.54;32.33
28428;BME280;15662;49.128;8.520;2023-04-06T11:11:59;100653.22;;;16.60;32.26
28428;BME280;15662;49.128;8.520;2023-04-06T11:14:28;100660.09;;;16.66;32.29
28428;BME280;15662;49.128;8.520;2023-04-06T11:16:56;100653.47;;;16.74;31.98
28428;BME280;15662;49.128;8.520;2023-04-06T11:19:24;100645.22;;;16.79;31.81
28428;BME280;15662;49.128;8.520;2023-04-06T11:21:52;100637.94;;;16.83;31.66
28428;BME280;15662;49.128;8.520;2023-04-06T11:24:23;100637.19;;;16.98;31.38
28428;BME280;15662;49.128;8.520;2023-04-06T11:26:56;100635.97;;;17.05;31.20
28428;BME280;15662;49.128;8.520;2023-04-06T11:29:29;100635.66;;;17.11;31.11
28428;BME280;15662;49.128;8.520;2023-04-06T11:32:04;100631.03;;;17.15;31.35
28428;BME280;15662;49.128;8.520;2023-04-06T11:34:37;100624.19;;;17.26;30.90
28428;BME280;15662;49.128;8.520;2023-04-06T11:37:11;100630.91;;;17.35;30.68
28428;BME280;15662;49.128;8.520;2023-04-06T11:39:51;100620.75;;;17.42;30.43
28428;BME280;15662;49.128;8.520;2023-04-06T11:42:27;100612.63;;;17.43;30.34
28428;BME280;15662;49.128;8.520;2023-04-06T11:44:58;100617.28;;;17.57;30.41
28428;BME280;15662;49.128;8.520;2023-04-06T11:47:34;100615.72;;;17.70;30.21
28428;BME280;15662;49.128;8.520;2023-04-06T11:50:10;100602.75;;;17.80;30.11
28428;BME280;15662;49.128;8.520;2023-04-06T11:52:42;100602.44;;;17.86;30.13
28428;BME280;15662;49.128;8.520;2023-04-06T11:55:17;100594.00;;;17.94;29.99
28428;BME280;15662;49.128;8.520;2023-04-06T11:57:45;100597.97;;;18.02;29.77
28428;BME280;15662;49.128;8.520;2023-04-06T12:00:16;100592.22;;;18.10;29.88
28428;BME280;15662;49.128;8.520;2023-04-06T12:02:48;100594.09;;;18.25;29.52
28428;BME280;15662;49.128;8.520;2023-04-06T12:05:28;100593.13;;;18.26;29.74
28428;BME280;15662;49.128;8.520;2023-04-06T12:07:56;100591.91;;;18.32;29.29
28428;BME280;15662;49.128;8.520;2023-04-06T12:10:30;100573.94;;;18.34;29.51
28428;BME280;15662;49.128;8.520;2023-04-06T12:12:59;100588.69;;;18.43;29.04
28428;BME280;15662;49.128;8.520;2023-04-06T12:15:30;100590.06;;;18.50;29.15
28428;BME280;15662;49.128;8.520;2023-04-06T12:18:00;100588.94;;;18.54;28.78
28428;BME280;15662;49.128;8.520;2023-04-06T12:20:28;100582.38;;;18.60;28.71
28428;BME280;15662;49.128;8.520;2023-04-06T12:22:57;100578.66;;;18.62;28.52
28428;BME280;15662;49.128;8.520;2023-04-06T12:25:25;100568.53;;;18.67;28.47
28428;BME280;15662;49.128;8.520;2023-04-06T12:27:54;100576.44;;;18.70;28.24
28428;BME280;15662;49.128;8.520;2023-04-06T12:30:22;100576.06;;;18.76;28.24
28428;BME280;15662;49.128;8.520;2023-04-06T12:32:51;100576.63;;;18.83;27.85
28428;BME280;15662;49.128;8.520;2023-04-06T12:35:21;100566.56;;;18.87;27.72
28428;BME280;15662;49.128;8.520;2023-04-06T12:37:50;100570.28;;;18.84;27.52
28428;BME280;15662;49.128;8.520;2023-04-06T12:40:18;100561.38;;;18.84;27.34
28428;BME280;15662;49.128;8.520;2023-04-06T12:42:46;100564.66;;;18.89;27.28
28428;BME280;15662;49.128;8.520;2023-04-06T12:45:14;100565.50;;;18.89;26.98
28428;BME280;15662;49.128;8.520;2023-04-06T12:47:42;100567.59;;;18.84;27.16
28428;BME280;15662;49.128;8.520;2023-04-06T12:50:10;100566.84;;;18.82;26.87
28428;BME280;15662;49.128;8.520;2023-04-06T12:52:38;100569.53;;;18.82;26.74
28428;BME280;15662;49.128;8.520;2023-04-06T12:55:08;100564.91;;;18.84;26.59
28428;BME280;15662;49.128;8.520;2023-04-06T12:57:36;100569.53;;;18.82;26.57
28428;BME280;15662;49.128;8.520;2023-04-06T13:00:07;100557.13;;;18.79;26.14
28428;BME280;15662;49.128;8.520;2023-04-06T13:02:38;100553.56;;;18.79;26.16
28428;BME280;15662;49.128;8.520;2023-04-06T13:05:07;100563.44;;;18.78;25.83
28428;BME280;15662;49.128;8.520;2023-04-06T13:07:35;100555.19;;;18.81;26.02
28428;BME280;15662;49.128;8.520;2023-04-06T13:10:06;100544.38;;;18.83;25.94
28428;BME280;15662;49.128;8.520;2023-04-06T13:12:36;100545.25;;;18.84;26.04
28428;BME280;15662;49.128;8.520;2023-04-06T13:15:05;100542.47;;;18.85;25.59